sensor_id;sensor_type;location;lat;lon;timestamp;P1;durP1;ratioP1;P2;durP2;ratioP2
68765;SDS011;55756;45.582;11.484;2023-11-21T00:01:37;48.47;;;30.73;;
68765;SDS011;55756;45.582;11.484;2023-11-21T00:04:03;41.85;;;27.77;;
68765;SDS011;55756;45.582;11.484;2023-11-21T00:06:29;38.70;;;25.55;;
68765;SDS011;55756;45.582;11.484;2023-11-21T00:08:55;38.08;;;24.60;;
68765;SDS011;55756;45.582;11.484;2023-11-21T00:11:21;35.03;;;23.77;;
68765;SDS011;55756;45.582;11.484;2023-11-21T00:13:47;33.20;;;22.27;;
68765;SDS011;55756;45.582;11.484;2023-11-21T00:16:13;32.85;;;23.35;;
68765;SDS011;55756;45.582;11.484;2023-11-21T00:18:38;33.63;;;22.88;;
68765;SDS011;55756;45.582;11.484;2023-11-21T00:21:04;34.28;;;22.80;;
68765;SDS011;55756;45.582;11.484;2023-11-21T00:23:30;32.85;;;22.33;;
68765;SDS011;55756;45.582;11.484;2023-11-21T00:25:56;33.58;;;22.70;;
68765;SDS011;55756;45.582;11.484;2023-11-21T00:28:22;34.08;;;21.92;;
68765;SDS011;55756;45.582;11.484;2023-11-21T00:30:48;33.67;;;21.80;;
68765;SDS011;55756;45.582;11.484;2023-11-21T00:33:13;28.70;;;21.48;;
68765;SDS011;55756;45.582;11.484;2023-11-21T00:35:39;29.33;;;20.60;;
68765;SDS011;55756;45.582;11.484;2023-11-21T00:38:05;33.30;;;21.40;;
68765;SDS011;55756;45.582;11.484;2023-11-21T00:40:31;28.33;;;20.20;;
68765;SDS011;55756;45.582;11.484;2023-11-21T00:42:57;28.17;;;19.50;;
68765;SDS011;55756;45.582;11.484;2023-11-21T00:45:23;28.88;;;20.38;;
68765;SDS011;55756;45.582;11.484;2023-11-21T00:47:50;28.05;;;19.95;;
68765;SDS011;55756;45.582;11.484;2023-11-21T00:50:15;30.77;;;20.42;;
68765;SDS011;55756;45.582;11.484;2023-11-21T00:52:41;31.67;;;21.17;;
68765;SDS011;55756;45.582;11.484;2023-11-21T00:55:07;33.22;;;22.20;;
68765;SDS011;55756;45.582;11.484;2023-11-21T00:57:34;30.95;;;22.50;;
68765;SDS011;55756;45.582;11.484;2023-11-21T01:00:00;32.13;;;22.17;;
68765;SDS011;55756;45.582;11.484;2023-11-21T01:02:26;32.85;;;22.05;;
68765;SDS011;55756;45.582;11.484;2023-11-21T01:04:52;31.48;;;22.10;;
68765;SDS011;55756;45.582;11.484;2023-11-21T01:07:18;30.83;;;21.95;;
68765;SDS011;55756;45.582;11.484;2023-11-21T01:09:45;31.38;;;22.27;;
68765;SDS011;55756;45.582;11.484;2023-11-21T01:12:11;32.80;;;22.15;;
68765;SDS011;55756;45.582;11.484;2023-11-21T01:14:37;30.92;;;22.58;;
68765;SDS011;55756;45.582;11.484;2023-11-21T01:17:03;37.92;;;22.65;;
68765;SDS011;55756;45.582;11.484;2023-11-21T01:19:30;33.35;;;22.88;;
68765;SDS011;55756;45.582;11.484;2023-11-21T01:21:56;32.60;;;23.08;;
68765;SDS011;55756;45.582;11.484;2023-11-21T01:24:23;33.20;;;23.25;;
68765;SDS011;55756;45.582;11.484;2023-11-21T01:26:49;32.38;;;23.25;;
68765;SDS011;55756;45.582;11.484;2023-11-21T01:29:16;32.20;;;22.73;;
68765;SDS011;55756;45.582;11.484;2023-11-21T01:31:42;32.25;;;22.55;;
68765;SDS011;55756;45.582;11.484;2023-11-21T01:34:08;33.45;;;23.58;;
68765;SDS011;55756;45.582;11.484;2023-11-21T01:36:33;30.75;;;22.35;;
68765;SDS011;55756;45.582;11.484;2023-11-21T01:39:00;32.20;;;23.05;;
68765;SDS011;55756;45.582;11.484;2023-11-21T01:41:26;32.97;;;22.77;;
68765;SDS011;55756;45.582;11.484;2023-11-21T01:43:53;35.85;;;22.95;;
68765;SDS011;55756;45.582;11.484;2023-11-21T01:46:20;32.10;;;23.58;;
68765;SDS011;55756;45.582;11.484;2023-11-21T01:48:46;35.22;;;24.17;;
68765;SDS011;55756;45.582;11.484;2023-11-21T01:51:14;35.43;;;24.50;;
68765;SDS011;55756;45.582;11.484;2023-11-21T01:53:40;33.75;;;22.80;;
68765;SDS011;55756;45.582;11.484;2023-11-21T01:56:06;34.38;;;23.98;;
68765;SDS011;55756;45.582;11.484;2023-11-21T01:58:33;35.75;;;23.65;;
68765;SDS011;55756;45.582;11.484;2023-11-21T02:00:59;37.22;;;24.85;;
68765;SDS011;55756;45.582;11.484;2023-11-21T02:03:27;34.20;;;23.98;;
68765;SDS011;55756;45.582;11.484;2023-11-21T02:05:53;35.97;;;23.95;;
68765;SDS011;55756;45.582;11.484;2023-11-21T02:08:19;35.10;;;23.13;;
68765;SDS011;55756;45.582;11.484;2023-11-21T02:10:45;35.13;;;24.20;;
68765;SDS011;55756;45.582;11.484;2023-11-21T02:13:11;34.85;;;23.95;;
68765;SDS011;55756;45.582;11.484;2023-11-21T02:15:37;42.65;;;26.38;;
68765;SDS011;55756;45.582;11.484;2023-11-21T02:18:03;36.88;;;24.23;;
68765;SDS011;55756;45.582;11.484;2023-11-21T02:20:31;36.13;;;24.23;;
68765;SDS011;55756;45.582;11.484;2023-11-21T02:25:27;33.20;;;23.33;;
68765;SDS011;55756;45.582;11.484;2023-11-21T02:27:57;35.40;;;24.13;;
68765;SDS011;55756;45.582;11.484;2023-11-21T02:30:27;34.92;;;23.75;;
68765;SDS011;55756;45.582;11.484;2023-11-21T02:32:53;33.28;;;22.75;;
68765;SDS011;55756;45.582;11.484;2023-11-21T02:35:20;37.03;;;23.83;;
68765;SDS011;55756;45.582;11.484;2023-11-21T02:37:48;33.05;;;23.08;;
68765;SDS011;55756;45.582;11.484;2023-11-21T02:42:45;37.13;;;24.35;;
68765;SDS011;55756;45.582;11.484;2023-11-21T02:45:15;35.60;;;24.70;;
68765;SDS011;55756;45.582;11.484;2023-11-21T02:47:44;33.55;;;22.98;;
68765;SDS011;55756;45.582;11.484;2023-11-21T02:50:10;32.33;;;22.83;;
68765;SDS011;55756;45.582;11.484;2023-11-21T02:52:36;33.50;;;23.52;;
68765;SDS011;55756;45.582;11.484;2023-11-21T02:55:02;35.17;;;23.95;;
68765;SDS011;55756;45.582;11.484;2023-11-21T02:57:29;34.38;;;23.42;;
68765;SDS011;55756;45.582;11.484;2023-11-21T02:59:54;34.78;;;23.45;;
68765;SDS011;55756;45.582;11.484;2023-11-21T03:02:20;34.28;;;23.35;;
68765;SDS011;55756;45.582;11.484;2023-11-21T03:04:48;34.83;;;24.77;;
68765;SDS011;55756;45.582;11.484;2023-11-21T03:07:14;37.38;;;23.35;;
68765;SDS011;55756;45.582;11.484;2023-11-21T03:09:40;33.50;;;23.20;;
68765;SDS011;55756;45.582;11.484;2023-11-21T03:12:06;33.22;;;22.88;;
68765;SDS011;55756;45.582;11.484;2023-11-21T03:14:34;34.20;;;22.52;;
68765;SDS011;55756;45.582;11.484;2023-11-21T03:17:00;32.50;;;22.25;;
68765;SDS011;55756;45.582;11.484;2023-11-21T03:19:27;36.33;;;22.30;;
68765;SDS011;55756;45.582;11.484;2023-11-21T03:21:52;30.67;;;21.92;;
68765;SDS011;55756;45.582;11.484;2023-11-21T03:24:18;32.85;;;22.05;;
68765;SDS011;55756;45.582;11.484;2023-11-21T03:26:45;31.88;;;21.63;;
68765;SDS011;55756;45.582;11.484;2023-11-21T03:29:12;31.65;;;21.25;;
68765;SDS011;55756;45.582;11.484;2023-11-21T03:31:38;31.55;;;21.50;;
68765;SDS011;55756;45.582;11.484;2023-11-21T03:34:04;31.65;;;20.98;;
68765;SDS011;55756;45.582;11.484;2023-11-21T03:36:32;30.60;;;21.38;;
68765;SDS011;55756;45.582;11.484;2023-11-21T03:38:58;26.98;;;19.42;;
68765;SDS011;55756;45.582;11.484;2023-11-21T03:41:24;26.73;;;19.50;;
68765;SDS011;55756;45.582;11.484;2023-11-21T03:43:50;27.02;;;19.80;;
68765;SDS011;55756;45.582;11.484;2023-11-21T03:46:16;29.23;;;20.42;;
68765;SDS011;55756;45.582;11.484;2023-11-21T03:48:41;30.90;;;21.00;;
68765;SDS011;55756;45.582;11.484;2023-11-21T03:51:07;31.73;;;21.77;;
68765;SDS011;55756;45.582;11.484;2023-11-21T03:53:33;29.45;;;21.30;;
68765;SDS011;55756;45.582;11.484;2023-11-21T03:56:01;31.50;;;21.52;;
68765;SDS011;55756;45.582;11.484;2023-11-21T03:58:28;30.58;;;20.85;;
68765;SDS011;55756;45.582;11.484;2023-11-21T04:00:54;31.98;;;21.60;;
68765;SDS011;55756;45.582;11.484;2023-11-21T04:03:20;29.23;;;20.55;;
68765;SDS011;55756;45.582;11.484;2023-11-21T04:05:46;29.80;;;20.33;;
68765;SDS011;55756;45.582;11.484;2023-11-21T04:08:12;30.48;;;22.25;;
68765;SDS011;55756;45.582;11.484;2023-11-21T04:10:38;28.83;;;21.55;;
68765;SDS011;55756;45.582;11.484;2023-11-21T04:13:04;31.08;;;21.77;;
68765;SDS011;55756;45.582;11.484;2023-11-21T04:15:31;28.77;;;20.38;;
68765;SDS011;55756;45.582;11.484;2023-11-21T04:17:57;29.60;;;20.45;;
68765;SDS011;55756;45.582;11.484;2023-11-21T04:20:23;30.38;;;20.85;;
68765;SDS011;55756;45.582;11.484;2023-11-21T04:22:49;30.85;;;21.60;;
68765;SDS011;55756;45.582;11.484;2023-11-21T04:25:15;30.50;;;20.80;;
68765;SDS011;55756;45.582;11.484;2023-11-21T04:27:41;29.13;;;20.60;;
68765;SDS011;55756;45.582;11.484;2023-11-21T04:30:09;31.13;;;21.27;;
68765;SDS011;55756;45.582;11.484;2023-11-21T04:32:35;33.00;;;22.42;;
68765;SDS011;55756;45.582;11.484;2023-11-21T04:35:01;30.38;;;20.92;;
68765;SDS011;55756;45.582;11.484;2023-11-21T04:37:29;28.95;;;20.08;;
68765;SDS011;55756;45.582;11.484;2023-11-21T04:39:55;32.05;;;22.05;;
68765;SDS011;55756;45.582;11.484;2023-11-21T04:42:21;30.55;;;20.23;;
68765;SDS011;55756;45.582;11.484;2023-11-21T04:44:47;29.27;;;20.98;;
68765;SDS011;55756;45.582;11.484;2023-11-21T04:47:13;29.90;;;21.10;;
68765;SDS011;55756;45.582;11.484;2023-11-21T04:49:41;30.27;;;20.90;;
68765;SDS011;55756;45.582;11.484;2023-11-21T04:52:08;29.60;;;21.33;;
68765;SDS011;55756;45.582;11.484;2023-11-21T04:54:35;33.78;;;21.35;;
68765;SDS011;55756;45.582;11.484;2023-11-21T04:57:01;30.27;;;20.85;;
68765;SDS011;55756;45.582;11.484;2023-11-21T04:59:27;29.42;;;20.83;;
68765;SDS011;55756;45.582;11.484;2023-11-21T05:01:53;29.17;;;20.90;;
68765;SDS011;55756;45.582;11.484;2023-11-21T05:04:19;29.08;;;20.75;;
68765;SDS011;55756;45.582;11.484;2023-11-21T05:06:47;30.10;;;20.55;;
68765;SDS011;55756;45.582;11.484;2023-11-21T05:09:13;29.25;;;20.67;;
68765;SDS011;55756;45.582;11.484;2023-11-21T05:11:39;28.55;;;19.98;;
68765;SDS011;55756;45.582;11.484;2023-11-21T05:14:06;30.02;;;20.40;;
68765;SDS011;55756;45.582;11.484;2023-11-21T05:16:32;30.90;;;19.35;;
68765;SDS011;55756;45.582;11.484;2023-11-21T05:18:58;29.80;;;20.63;;
68765;SDS011;55756;45.582;11.484;2023-11-21T05:21:29;26.45;;;19.23;;
68765;SDS011;55756;45.582;11.484;2023-11-21T05:23:56;26.70;;;20.23;;
68765;SDS011;55756;45.582;11.484;2023-11-21T05:26:22;29.13;;;20.88;;
68765;SDS011;55756;45.582;11.484;2023-11-21T05:28:48;30.95;;;21.13;;
68765;SDS011;55756;45.582;11.484;2023-11-21T05:31:13;29.67;;;20.38;;
68765;SDS011;55756;45.582;11.484;2023-11-21T05:33:40;29.27;;;20.42;;
68765;SDS011;55756;45.582;11.484;2023-11-21T05:36:06;29.42;;;20.35;;
68765;SDS011;55756;45.582;11.484;2023-11-21T05:38:33;29.67;;;20.98;;
68765;SDS011;55756;45.582;11.484;2023-11-21T05:41:00;30.88;;;20.63;;
68765;SDS011;55756;45.582;11.484;2023-11-21T05:43:26;27.98;;;20.08;;
68765;SDS011;55756;45.582;11.484;2023-11-21T05:45:54;32.50;;;21.53;;
68765;SDS011;55756;45.582;11.484;2023-11-21T05:48:20;30.20;;;22.20;;
68765;SDS011;55756;45.582;11.484;2023-11-21T05:50:46;28.58;;;21.02;;
68765;SDS011;55756;45.582;11.484;2023-11-21T05:53:14;29.92;;;20.95;;
68765;SDS011;55756;45.582;11.484;2023-11-21T05:55:40;29.70;;;21.85;;
68765;SDS011;55756;45.582;11.484;2023-11-21T05:58:07;32.22;;;21.65;;
68765;SDS011;55756;45.582;11.484;2023-11-21T06:00:33;30.73;;;21.33;;
68765;SDS011;55756;45.582;11.484;2023-11-21T06:02:59;29.25;;;20.20;;
68765;SDS011;55756;45.582;11.484;2023-11-21T06:05:25;30.33;;;20.52;;
68765;SDS011;55756;45.582;11.484;2023-11-21T06:07:51;32.03;;;21.52;;
68765;SDS011;55756;45.582;11.484;2023-11-21T06:10:19;32.00;;;20.92;;
68765;SDS011;55756;45.582;11.484;2023-11-21T06:12:46;28.45;;;20.80;;
68765;SDS011;55756;45.582;11.484;2023-11-21T06:15:12;31.10;;;20.80;;
68765;SDS011;55756;45.582;11.484;2023-11-21T06:17:41;30.30;;;21.13;;
68765;SDS011;55756;45.582;11.484;2023-11-21T06:20:11;31.58;;;21.33;;
68765;SDS011;55756;45.582;11.484;2023-11-21T06:22:39;28.08;;;19.83;;
68765;SDS011;55756;45.582;11.484;2023-11-21T06:25:10;28.77;;;21.08;;
68765;SDS011;55756;45.582;11.484;2023-11-21T06:27:45;30.27;;;21.10;;
68765;SDS011;55756;45.582;11.484;2023-11-21T06:30:15;29.95;;;20.52;;
68765;SDS011;55756;45.582;11.484;2023-11-21T06:32:41;29.23;;;20.73;;
68765;SDS011;55756;45.582;11.484;2023-11-21T06:35:10;29.63;;;21.05;;
68765;SDS011;55756;45.582;11.484;2023-11-21T06:37:37;30.77;;;21.63;;
68765;SDS011;55756;45.582;11.484;2023-11-21T06:40:02;32.75;;;21.95;;
68765;SDS011;55756;45.582;11.484;2023-11-21T06:42:29;32.83;;;21.80;;
68765;SDS011;55756;45.582;11.484;2023-11-21T06:44:55;32.72;;;21.25;;
68765;SDS011;55756;45.582;11.484;2023-11-21T06:47:23;30.25;;;22.02;;
68765;SDS011;55756;45.582;11.484;2023-11-21T06:49:53;32.55;;;22.38;;
68765;SDS011;55756;45.582;11.484;2023-11-21T06:52:19;32.67;;;22.85;;
68765;SDS011;55756;45.582;11.484;2023-11-21T06:54:45;33.53;;;22.30;;
68765;SDS011;55756;45.582;11.484;2023-11-21T06:57:12;32.47;;;22.10;;
68765;SDS011;55756;45.582;11.484;2023-11-21T06:59:38;32.45;;;22.15;;
68765;SDS011;55756;45.582;11.484;2023-11-21T07:02:04;29.85;;;21.60;;
68765;SDS011;55756;45.582;11.484;2023-11-21T07:04:32;32.40;;;22.33;;
68765;SDS011;55756;45.582;11.484;2023-11-21T07:06:58;34.20;;;22.48;;
68765;SDS011;55756;45.582;11.484;2023-11-21T07:09:23;32.58;;;22.27;;
68765;SDS011;55756;45.582;11.484;2023-11-21T07:11:53;29.60;;;22.08;;
68765;SDS011;55756;45.582;11.484;2023-11-21T07:14:20;32.83;;;22.35;;
68765;SDS011;55756;45.582;11.484;2023-11-21T07:16:46;31.85;;;20.77;;
68765;SDS011;55756;45.582;11.484;2023-11-21T07:19:12;31.50;;;22.58;;
68765;SDS011;55756;45.582;11.484;2023-11-21T07:21:39;32.33;;;22.58;;
68765;SDS011;55756;45.582;11.484;2023-11-21T07:24:06;32.13;;;21.95;;
68765;SDS011;55756;45.582;11.484;2023-11-21T07:26:33;31.60;;;22.00;;
68765;SDS011;55756;45.582;11.484;2023-11-21T07:29:00;31.45;;;20.77;;
68765;SDS011;55756;45.582;11.484;2023-11-21T07:31:26;29.60;;;20.67;;
68765;SDS011;55756;45.582;11.484;2023-11-21T07:33:52;31.63;;;19.98;;
68765;SDS011;55756;45.582;11.484;2023-11-21T07:36:21;30.30;;;20.17;;
68765;SDS011;55756;45.582;11.484;2023-11-21T07:38:47;32.83;;;19.80;;
68765;SDS011;55756;45.582;11.484;2023-11-21T07:41:13;29.38;;;20.90;;
68765;SDS011;55756;45.582;11.484;2023-11-21T07:43:43;31.25;;;20.08;;
68765;SDS011;55756;45.582;11.484;2023-11-21T07:46:11;31.45;;;20.40;;
68765;SDS011;55756;45.582;11.484;2023-11-21T07:48:38;29.58;;;21.25;;
68765;SDS011;55756;45.582;11.484;2023-11-21T07:51:04;33.35;;;21.55;;
68765;SDS011;55756;45.582;11.484;2023-11-21T07:53:33;34.63;;;21.38;;
68765;SDS011;55756;45.582;11.484;2023-11-21T07:56:02;31.92;;;22.15;;
68765;SDS011;55756;45.582;11.484;2023-11-21T07:58:29;33.17;;;22.10;;
68765;SDS011;55756;45.582;11.484;2023-11-21T08:00:56;32.80;;;22.50;;
68765;SDS011;55756;45.582;11.484;2023-11-21T08:03:22;31.30;;;22.17;;
68765;SDS011;55756;45.582;11.484;2023-11-21T08:05:47;31.60;;;22.52;;
68765;SDS011;55756;45.582;11.484;2023-11-21T08:08:13;31.58;;;22.75;;
68765;SDS011;55756;45.582;11.484;2023-11-21T08:10:40;34.25;;;23.63;;
68765;SDS011;55756;45.582;11.484;2023-11-21T08:13:07;34.97;;;22.75;;
68765;SDS011;55756;45.582;11.484;2023-11-21T08:15:34;34.33;;;23.50;;
68765;SDS011;55756;45.582;11.484;2023-11-21T08:18:02;32.55;;;23.33;;
68765;SDS011;55756;45.582;11.484;2023-11-21T08:20:27;31.17;;;22.90;;
68765;SDS011;55756;45.582;11.484;2023-11-21T08:22:54;32.30;;;23.50;;
68765;SDS011;55756;45.582;11.484;2023-11-21T08:25:22;33.63;;;23.60;;
68765;SDS011;55756;45.582;11.484;2023-11-21T08:27:47;36.50;;;24.10;;
68765;SDS011;55756;45.582;11.484;2023-11-21T08:30:14;34.10;;;24.00;;
68765;SDS011;55756;45.582;11.484;2023-11-21T08:32:42;33.73;;;24.17;;
68765;SDS011;55756;45.582;11.484;2023-11-21T08:35:08;35.42;;;24.17;;
68765;SDS011;55756;45.582;11.484;2023-11-21T08:37:34;34.13;;;24.13;;
68765;SDS011;55756;45.582;11.484;2023-11-21T08:40:03;32.40;;;23.65;;
68765;SDS011;55756;45.582;11.484;2023-11-21T08:42:33;35.25;;;22.90;;
68765;SDS011;55756;45.582;11.484;2023-11-21T08:44:59;31.77;;;22.40;;
68765;SDS011;55756;45.582;11.484;2023-11-21T08:47:25;37.10;;;22.90;;
68765;SDS011;55756;45.582;11.484;2023-11-21T08:49:51;33.55;;;23.58;;
68765;SDS011;55756;45.582;11.484;2023-11-21T08:52:18;32.95;;;23.10;;
68765;SDS011;55756;45.582;11.484;2023-11-21T08:54:48;34.25;;;23.92;;
68765;SDS011;55756;45.582;11.484;2023-11-21T08:57:25;34.65;;;24.90;;
68765;SDS011;55756;45.582;11.484;2023-11-21T08:59:51;46.10;;;29.65;;
68765;SDS011;55756;45.582;11.484;2023-11-21T09:02:21;52.85;;;33.55;;
68765;SDS011;55756;45.582;11.484;2023-11-21T09:04:48;53.20;;;34.53;;
68765;SDS011;55756;45.582;11.484;2023-11-21T09:07:15;58.55;;;35.65;;
68765;SDS011;55756;45.582;11.484;2023-11-21T09:09:41;57.78;;;35.00;;
68765;SDS011;55756;45.582;11.484;2023-11-21T09:12:07;52.88;;;33.20;;
68765;SDS011;55756;45.582;11.484;2023-11-21T09:14:37;49.00;;;32.42;;
68765;SDS011;55756;45.582;11.484;2023-11-21T09:17:04;44.28;;;29.20;;
68765;SDS011;55756;45.582;11.484;2023-11-21T09:19:38;43.65;;;26.80;;
68765;SDS011;55756;45.582;11.484;2023-11-21T09:22:05;40.03;;;27.10;;
68765;SDS011;55756;45.582;11.484;2023-11-21T09:24:34;38.22;;;25.92;;
68765;SDS011;55756;45.582;11.484;2023-11-21T09:27:00;37.40;;;27.08;;
68765;SDS011;55756;45.582;11.484;2023-11-21T09:29:26;36.35;;;26.38;;
68765;SDS011;55756;45.582;11.484;2023-11-21T09:31:52;36.55;;;25.92;;
68765;SDS011;55756;45.582;11.484;2023-11-21T09:34:20;38.53;;;26.65;;
68765;SDS011;55756;45.582;11.484;2023-11-21T09:36:46;36.25;;;26.48;;
68765;SDS011;55756;45.582;11.484;2023-11-21T09:39:13;37.97;;;26.30;;
68765;SDS011;55756;45.582;11.484;2023-11-21T09:41:43;39.58;;;29.08;;
68765;SDS011;55756;45.582;11.484;2023-11-21T09:44:15;38.17;;;27.20;;
68765;SDS011;55756;45.582;11.484;2023-11-21T09:46:44;39.17;;;26.75;;
68765;SDS011;55756;45.582;11.484;2023-11-21T09:49:14;37.83;;;26.08;;
68765;SDS011;55756;45.582;11.484;2023-11-21T09:51:44;36.45;;;25.67;;
68765;SDS011;55756;45.582;11.484;2023-11-21T09:54:12;36.65;;;26.50;;
68765;SDS011;55756;45.582;11.484;2023-11-21T09:56:41;41.08;;;27.55;;
68765;SDS011;55756;45.582;11.484;2023-11-21T09:59:07;40.85;;;27.27;;
68765;SDS011;55756;45.582;11.484;2023-11-21T10:01:40;45.22;;;29.65;;
68765;SDS011;55756;45.582;11.484;2023-11-21T10:04:07;38.97;;;28.48;;
68765;SDS011;55756;45.582;11.484;2023-11-21T10:06:39;38.63;;;26.50;;
68765;SDS011;55756;45.582;11.484;2023-11-21T10:09:11;40.88;;;27.98;;
68765;SDS011;55756;45.582;11.484;2023-11-21T10:11:42;41.20;;;28.83;;
68765;SDS011;55756;45.582;11.484;2023-11-21T10:14:10;43.45;;;29.40;;
68765;SDS011;55756;45.582;11.484;2023-11-21T10:16:40;44.17;;;27.98;;
68765;SDS011;55756;45.582;11.484;2023-11-21T10:19:10;39.80;;;27.30;;
68765;SDS011;55756;45.582;11.484;2023-11-21T10:21:37;41.53;;;28.45;;
68765;SDS011;55756;45.582;11.484;2023-11-21T10:24:04;41.50;;;28.40;;
68765;SDS011;55756;45.582;11.484;2023-11-21T10:26:31;69.65;;;45.03;;
68765;SDS011;55756;45.582;11.484;2023-11-21T10:28:59;98.40;;;60.65;;
68765;SDS011;55756;45.582;11.484;2023-11-21T10:31:31;70.03;;;47.63;;
68765;SDS011;55756;45.582;11.484;2023-11-21T10:34:17;45.55;;;30.38;;
68765;SDS011;55756;45.582;11.484;2023-11-21T10:36:43;39.17;;;26.88;;
68765;SDS011;55756;45.582;11.484;2023-11-21T10:39:13;44.50;;;27.90;;
68765;SDS011;55756;45.582;11.484;2023-11-21T10:41:44;37.70;;;25.73;;
68765;SDS011;55756;45.582;11.484;2023-11-21T10:44:11;36.42;;;22.83;;
68765;SDS011;55756;45.582;11.484;2023-11-21T10:46:45;34.67;;;22.90;;
68765;SDS011;55756;45.582;11.484;2023-11-21T10:49:18;33.75;;;21.83;;
68765;SDS011;55756;45.582;11.484;2023-11-21T10:51:45;31.13;;;20.73;;
68765;SDS011;55756;45.582;11.484;2023-11-21T10:54:11;29.17;;;17.15;;
68765;SDS011;55756;45.582;11.484;2023-11-21T10:56:37;26.60;;;16.50;;
68765;SDS011;55756;45.582;11.484;2023-11-21T10:59:07;27.13;;;16.52;;
68765;SDS011;55756;45.582;11.484;2023-11-21T11:01:40;28.20;;;16.00;;
68765;SDS011;55756;45.582;11.484;2023-11-21T11:04:09;24.17;;;15.93;;
68765;SDS011;55756;45.582;11.484;2023-11-21T11:06:45;25.00;;;17.02;;
68765;SDS011;55756;45.582;11.484;2023-11-21T11:09:16;29.52;;;18.65;;
68765;SDS011;55756;45.582;11.484;2023-11-21T11:11:43;25.83;;;15.73;;
68765;SDS011;55756;45.582;11.484;2023-11-21T11:14:13;25.70;;;15.85;;
68765;SDS011;55756;45.582;11.484;2023-11-21T11:16:39;28.08;;;15.35;;
68765;SDS011;55756;45.582;11.484;2023-11-21T11:19:09;26.67;;;15.57;;
68765;SDS011;55756;45.582;11.484;2023-11-21T11:38:54;26.30;;;15.75;;
68765;SDS011;55756;45.582;11.484;2023-11-21T11:41:28;29.83;;;16.92;;
68765;SDS011;55756;45.582;11.484;2023-11-21T11:43:58;28.33;;;16.25;;
68765;SDS011;55756;45.582;11.484;2023-11-21T11:46:41;27.42;;;16.60;;
68765;SDS011;55756;45.582;11.484;2023-11-21T11:49:10;24.23;;;15.10;;
68765;SDS011;55756;45.582;11.484;2023-11-21T11:51:48;26.40;;;14.70;;
68765;SDS011;55756;45.582;11.484;2023-11-21T11:54:15;22.08;;;13.90;;
68765;SDS011;55756;45.582;11.484;2023-11-21T11:56:45;23.23;;;13.90;;
68765;SDS011;55756;45.582;11.484;2023-11-21T11:59:12;23.52;;;14.20;;
68765;SDS011;55756;45.582;11.484;2023-11-21T12:01:38;24.00;;;16.40;;
68765;SDS011;55756;45.582;11.484;2023-11-21T12:06:56;15.88;;;9.95;;
68765;SDS011;55756;45.582;11.484;2023-11-21T12:09:25;15.18;;;9.77;;
68765;SDS011;55756;45.582;11.484;2023-11-21T12:11:52;21.83;;;12.10;;
68765;SDS011;55756;45.582;11.484;2023-11-21T12:14:19;29.23;;;17.10;;
68765;SDS011;55756;45.582;11.484;2023-11-21T12:16:46;38.40;;;24.45;;
68765;SDS011;55756;45.582;11.484;2023-11-21T12:19:13;28.85;;;18.10;;
68765;SDS011;55756;45.582;11.484;2023-11-21T12:21:40;20.80;;;12.48;;
68765;SDS011;55756;45.582;11.484;2023-11-21T12:24:06;16.63;;;10.73;;
68765;SDS011;55756;45.582;11.484;2023-11-21T12:26:38;16.88;;;9.65;;
68765;SDS011;55756;45.582;11.484;2023-11-21T12:29:05;18.38;;;10.80;;
68765;SDS011;55756;45.582;11.484;2023-11-21T12:31:32;28.23;;;16.90;;
68765;SDS011;55756;45.582;11.484;2023-11-21T12:33:59;24.55;;;14.05;;
68765;SDS011;55756;45.582;11.484;2023-11-21T12:36:25;18.15;;;10.60;;
68765;SDS011;55756;45.582;11.484;2023-11-21T12:38:51;19.05;;;9.65;;
68765;SDS011;55756;45.582;11.484;2023-11-21T12:41:17;14.20;;;8.88;;
68765;SDS011;55756;45.582;11.484;2023-11-21T12:43:43;16.13;;;8.35;;
68765;SDS011;55756;45.582;11.484;2023-11-21T12:46:09;14.65;;;7.57;;
68765;SDS011;55756;45.582;11.484;2023-11-21T12:48:42;13.50;;;7.45;;
68765;SDS011;55756;45.582;11.484;2023-11-21T12:51:09;13.70;;;8.30;;
68765;SDS011;55756;45.582;11.484;2023-11-21T12:53:37;15.50;;;9.48;;
68765;SDS011;55756;45.582;11.484;2023-11-21T12:56:07;19.00;;;10.82;;
68765;SDS011;55756;45.582;11.484;2023-11-21T12:58:37;14.50;;;8.88;;
68765;SDS011;55756;45.582;11.484;2023-11-21T13:01:05;15.13;;;8.05;;
68765;SDS011;55756;45.582;11.484;2023-11-21T13:03:37;15.23;;;8.63;;
68765;SDS011;55756;45.582;11.484;2023-11-21T13:06:04;17.00;;;10.53;;
68765;SDS011;55756;45.582;11.484;2023-11-21T13:08:30;16.25;;;9.40;;
68765;SDS011;55756;45.582;11.484;2023-11-21T13:10:58;14.77;;;7.95;;
68765;SDS011;55756;45.582;11.484;2023-11-21T13:13:25;13.57;;;7.97;;
68765;SDS011;55756;45.582;11.484;2023-11-21T13:15:56;15.40;;;8.70;;
68765;SDS011;55756;45.582;11.484;2023-11-21T13:18:29;12.70;;;8.07;;
68765;SDS011;55756;45.582;11.484;2023-11-21T13:21:00;15.63;;;8.48;;
68765;SDS011;55756;45.582;11.484;2023-11-21T13:26:15;14.48;;;8.65;;
68765;SDS011;55756;45.582;11.484;2023-11-21T13:28:41;18.73;;;10.45;;
68765;SDS011;55756;45.582;11.484;2023-11-21T13:31:11;19.10;;;11.57;;
68765;SDS011;55756;45.582;11.484;2023-11-21T13:33:47;20.67;;;12.27;;
68765;SDS011;55756;45.582;11.484;2023-11-21T13:36:21;19.60;;;12.32;;
68765;SDS011;55756;45.582;11.484;2023-11-21T13:38:51;20.63;;;12.50;;
68765;SDS011;55756;45.582;11.484;2023-11-21T13:41:19;18.35;;;11.07;;
68765;SDS011;55756;45.582;11.484;2023-11-21T13:43:53;19.10;;;11.07;;
68765;SDS011;55756;45.582;11.484;2023-11-21T13:46:28;18.63;;;11.90;;
68765;SDS011;55756;45.582;11.484;2023-11-21T13:48:56;19.40;;;11.85;;
68765;SDS011;55756;45.582;11.484;2023-11-21T13:51:22;19.90;;;12.05;;
68765;SDS011;55756;45.582;11.484;2023-11-21T13:53:56;20.65;;;12.50;;
68765;SDS011;55756;45.582;11.484;2023-11-21T13:56:22;19.10;;;11.57;;
68765;SDS011;55756;45.582;11.484;2023-11-21T13:58:49;21.00;;;11.48;;
68765;SDS011;55756;45.582;11.484;2023-11-21T14:01:19;20.13;;;12.02;;
68765;SDS011;55756;45.582;11.484;2023-11-21T14:03:58;22.65;;;12.43;;
68765;SDS011;55756;45.582;11.484;2023-11-21T14:06:38;22.00;;;12.50;;
68765;SDS011;55756;45.582;11.484;2023-11-21T14:09:19;18.80;;;12.02;;
68765;SDS011;55756;45.582;11.484;2023-11-21T14:12:12;19.83;;;12.60;;
68765;SDS011;55756;45.582;11.484;2023-11-21T14:14:38;21.38;;;12.00;;
68765;SDS011;55756;45.582;11.484;2023-11-21T14:17:05;21.05;;;10.90;;
68765;SDS011;55756;45.582;11.484;2023-11-21T14:19:32;19.35;;;11.10;;
68765;SDS011;55756;45.582;11.484;2023-11-21T14:21:59;18.02;;;10.30;;
68765;SDS011;55756;45.582;11.484;2023-11-21T14:24:25;16.20;;;9.73;;
68765;SDS011;55756;45.582;11.484;2023-11-21T14:26:51;16.65;;;9.35;;
68765;SDS011;55756;45.582;11.484;2023-11-21T14:29:18;17.60;;;9.13;;
68765;SDS011;55756;45.582;11.484;2023-11-21T14:31:48;15.70;;;8.85;;
68765;SDS011;55756;45.582;11.484;2023-11-21T14:34:16;18.40;;;9.88;;
68765;SDS011;55756;45.582;11.484;2023-11-21T14:36:42;20.42;;;11.45;;
68765;SDS011;55756;45.582;11.484;2023-11-21T14:39:09;19.58;;;11.25;;